Mykonos — ZDJA6 — position and weather

sailwx.info

Track history (hours):
 
Tides and Currents Weather Stations Pressure Air Temp Water Temp Dewpoint Dewpoint Depression Visibility Wind Speed Wind Dir Waves Ship Positions

Mykonos

Last reported at 2018-Jul-19 13:39 UTC. Time now 2018-Jul-20 10:49 UTC.
Position N 39°16' W 009°51'.

Length 91 m; draft 4.8 m.

Type: Tanker. MMSI: 236502000.

Date/timePositionNaut miles runAvg speedWind from/ knotsBaromVisibWave heightAir tempDewpointWater temp
2018-Jul-19 13:39N 39°16' W 009°51'210.7
2018-Jul-19 13:30N 39°15' W 009°51'610.6
2018-Jul-19 12:59N 39°09' W 009°51'510.7
2018-Jul-19 12:30N 39°04' W 009°51'611.0
2018-Jul-19 12:00N 38°58' W 009°51'510.8
2018-Jul-19 11:30N 38°53' W 009°51'610.5
2018-Jul-19 10:58N 38°47' W 009°51'510.6
2018-Jul-19 10:30N 38°43' W 009°51'511.0
2018-Jul-19 10:00N 38°37' W 009°49'611.2
2018-Jul-19 09:30N 38°32' W 009°47'710.9
2018-Jul-19 08:51N 38°25' W 009°45'710.9
2018-Jul-19 08:15N 38°19' W 009°43'611.0
2018-Jul-19 07:43N 38°13' W 009°42'211.1
2018-Jul-19 07:30N 38°11' W 009°41'611.0
2018-Jul-19 07:00N 38°05' W 009°40'610.9
2018-Jul-19 06:30N 37°60' W 009°38'610.9
2018-Jul-19 05:57N 37°54' W 009°37'510.7
2018-Jul-19 05:30N 37°49' W 009°36'7410.0
2018-Jul-18 22:04N 36°41' W 008°58'111.1
2018-Jul-18 21:56N 36°41' W 008°57'710.8
2018-Jul-18 21:17N 36°39' W 008°48'16510.6
2018-Jul-18 05:47N 35°60' W 005°29'310.3
2018-Jul-18 05:30N 36°01' W 005°26'6 9.9
2018-Jul-18 04:51N 36°06' W 005°23'2 5.2
2018-Jul-18 04:28N 36°08' W 005°22'0 0.1
2018-Jul-18 03:54N 36°08' W 005°22'0 0.1
2018-Jul-18 03:30N 36°09' W 005°22'0 0.1
2018-Jul-18 02:53N 36°08' W 005°22'0 0.1
2018-Jul-18 02:29N 36°08' W 005°22'0 0.1
2018-Jul-18 01:57N 36°08' W 005°22'0 0.0
2018-Jul-18 01:29N 36°08' W 005°22'0 0.1
2018-Jul-18 01:00N 36°08' W 005°22'0 0.8
2018-Jul-18 00:30N 36°08' W 005°22'3 6.4
2018-Jul-18 00:00N 36°05' W 005°20'5 9.0
2018-Jul-17 23:30N 36°06' W 005°15'21611.1
2018-Jul-17 03:55N 36°27' W 000°48'512.0
2018-Jul-17 03:30N 36°29' W 000°42'1711.6
2018-Jul-17 02:00N 36°32' W 000°21'1011.4
2018-Jul-17 01:09N 36°35' W 000°09'311.1
2018-Jul-17 00:54N 36°36' W 000°06'410.7
2018-Jul-17 00:30N 36°37' W 000°01'1010.1
2018-Jul-16 23:30N 36°40' E 000°12'5 9.7
2018-Jul-16 23:00N 36°41' E 000°18'5 9.7
2018-Jul-16 22:30N 36°41' E 000°24'9 9.9
2018-Jul-16 21:36N 36°43' E 000°34'1 9.6
2018-Jul-16 21:30N 36°43' E 000°35'238 9.6
2018-Jul-15 20:51N 37°29' E 005°28'1413.1
2018-Jul-15 19:49N 37°30' E 005°45'1112.9
2018-Jul-15 18:58N 37°32' E 005°59'35911.2
2018-Jul-14 10:57N 36°22' E 013°19'510.9
2018-Jul-14 10:30N 36°22' E 013°25'611.2
2018-Jul-14 10:00N 36°22' E 013°32'611.3
2018-Jul-14 09:30N 36°21' E 013°39'611.7
2018-Jul-14 09:00N 36°21' E 013°46'612.0
2018-Jul-14 08:30N 36°21' E 013°54'612.2
2018-Jul-14 07:59N 36°20' E 014°01'612.4
2018-Jul-14 07:29N 36°20' E 014°09'612.4
2018-Jul-14 07:00N 36°20' E 014°17'612.5
2018-Jul-14 06:30N 36°20' E 014°24'612.3
2018-Jul-14 06:00N 36°19' E 014°32'612.1
2018-Jul-14 05:30N 36°19' E 014°39'612.0
2018-Jul-14 05:00N 36°18' E 014°47'611.8
2018-Jul-14 04:30N 36°18' E 014°54'43010.0
2018-Jul-12 09:44N 37°37' E 023°43'412.0
2018-Jul-12 09:26N 37°41' E 023°42'512.3
2018-Jul-12 09:00N 37°45' E 023°39'612.2
2018-Jul-12 08:30N 37°51' E 023°35'4 8.7
2018-Jul-12 08:00N 37°55' E 023°33'0 0.2
2018-Jul-12 07:30N 37°55' E 023°33'0 0.0
2018-Jul-12 07:00N 37°55' E 023°33'0 0.0
2018-Jul-12 06:30N 37°55' E 023°33'0 0.0
2018-Jul-12 06:00N 37°55' E 023°33'0 0.0
2018-Jul-12 05:30N 37°55' E 023°33'0 0.1
2018-Jul-12 05:00N 37°55' E 023°33'0 0.1
2018-Jul-12 04:24N 37°55' E 023°33'0 0.0
2018-Jul-12 04:00N 37°55' E 023°33'0 0.0
2018-Jul-12 03:30N 37°55' E 023°33'0 0.1
2018-Jul-12 03:00N 37°55' E 023°33'0 0.1
2018-Jul-12 02:30N 37°55' E 023°33'0 0.0
2018-Jul-12 02:00N 37°55' E 023°33'0 0.0
2018-Jul-12 01:30N 37°55' E 023°33'0 0.0
2018-Jul-12 01:00N 37°55' E 023°33'0 0.0
2018-Jul-12 00:30N 37°55' E 023°33'0 0.0
2018-Jul-12 00:00N 37°55' E 023°33'0 0.0
2018-Jul-11 23:27N 37°55' E 023°33'0 0.0
2018-Jul-11 23:00N 37°55' E 023°33'0 0.1
2018-Jul-11 22:30N 37°55' E 023°33'0 0.0
2018-Jul-11 22:00N 37°55' E 023°33'0 0.0
2018-Jul-11 21:30N 37°55' E 023°33'0 0.0
2018-Jul-11 21:00N 37°55' E 023°33'0 0.0
2018-Jul-11 20:30N 37°55' E 023°33'0 0.1
2018-Jul-11 19:57N 37°55' E 023°33'0 0.1
2018-Jul-11 19:30N 37°55' E 023°33'0 0.1
2018-Jul-11 18:57N 37°55' E 023°33'0 0.1
2018-Jul-11 18:27N 37°55' E 023°33'0 0.1
2018-Jul-11 18:00N 37°55' E 023°33'0 0.0
2018-Jul-11 17:24N 37°55' E 023°33'0 0.0
2018-Jul-11 17:00N 37°55' E 023°33'0 0.0
2018-Jul-11 16:30N 37°55' E 023°33'0 0.0
2018-Jul-11 16:00N 37°55' E 023°33'0 0.0
2018-Jul-11 15:30N 37°55' E 023°33'0 0.0
2018-Jul-11 15:00N 37°55' E 023°33'0 0.0
2018-Jul-11 14:30N 37°55' E 023°33'0 0.0
2018-Jul-11 14:00N 37°55' E 023°33'0 0.0
2018-Jul-11 13:30N 37°55' E 023°33'0 0.0
2018-Jul-11 13:00N 37°55' E 023°33'0 0.1
2018-Jul-11 12:30N 37°55' E 023°33'0 0.0
2018-Jul-11 12:00N 37°55' E 023°33'0 0.0
2018-Jul-11 11:30N 37°55' E 023°33'0 0.0
2018-Jul-11 11:00N 37°55' E 023°33'0 0.0
2018-Jul-11 10:30N 37°55' E 023°33'0 0.0
2018-Jul-11 10:00N 37°55' E 023°33'0 0.0
2018-Jul-11 09:30N 37°55' E 023°33'0 0.1
2018-Jul-11 09:00N 37°55' E 023°33'0 0.1
2018-Jul-11 08:30N 37°55' E 023°33'1 1.6
2018-Jul-11 08:00N 37°55' E 023°34'3 5.6
2018-Jul-11 07:29N 37°57' E 023°36'0 0.1
2018-Jul-11 06:56N 37°57' E 023°36'0 0.0
2018-Jul-11 06:29N 37°57' E 023°36'0 0.0
2018-Jul-11 05:59N 37°57' E 023°36'0 0.0
2018-Jul-11 05:29N 37°57' E 023°36'0 0.0
2018-Jul-11 04:59N 37°57' E 023°36'0 0.0
2018-Jul-11 04:29N 37°57' E 023°36'0 0.0
2018-Jul-11 03:59N 37°57' E 023°36'0 0.0
2018-Jul-11 03:29N 37°57' E 023°36'0 0.0
2018-Jul-11 02:59N 37°57' E 023°36'0 0.0
2018-Jul-11 02:29N 37°57' E 023°36'0 0.0
2018-Jul-11 01:56N 37°57' E 023°36'0 0.0
2018-Jul-11 01:29N 37°57' E 023°36'0 0.0
2018-Jul-11 00:59N 37°57' E 023°36'0 0.0
2018-Jul-11 00:29N 37°57' E 023°36'0 0.0
2018-Jul-10 23:56N 37°57' E 023°36'0 0.0
2018-Jul-10 23:29N 37°57' E 023°36'0 0.0
2018-Jul-10 22:59N 37°57' E 023°36'0 0.0
2018-Jul-10 22:29N 37°57' E 023°36'0 0.0
2018-Jul-10 21:59N 37°57' E 023°36'0 0.0
2018-Jul-10 21:29N 37°57' E 023°36'0 0.0
2018-Jul-10 20:59N 37°57' E 023°36'0 0.0
2018-Jul-10 20:29N 37°57' E 023°36'0 0.0
2018-Jul-10 19:59N 37°57' E 023°36'0 0.0
2018-Jul-10 19:29N 37°57' E 023°36'0 0.0
2018-Jul-10 18:53N 37°57' E 023°36'0 0.0
2018-Jul-10 18:29N 37°57' E 023°36'0 0.0
2018-Jul-10 17:56N 37°57' E 023°36'0 0.0
2018-Jul-10 17:29N 37°57' E 023°36'0 0.0
2018-Jul-10 16:59N 37°57' E 023°36'0 0.0
2018-Jul-10 16:29N 37°57' E 023°36'0 0.0
2018-Jul-10 15:53N 37°57' E 023°36'0 0.0
2018-Jul-10 15:29N 37°57' E 023°36'0 0.0
2018-Jul-10 14:59N 37°57' E 023°36'0 0.0
2018-Jul-10 14:29N 37°57' E 023°36'0 0.0
2018-Jul-10 13:59N 37°57' E 023°36'0 0.0
2018-Jul-10 13:26N 37°57' E 023°36'0 0.0
2018-Jul-10 12:59N 37°57' E 023°36'0 0.0
2018-Jul-10 12:29N 37°57' E 023°36'0 0.0
2018-Jul-10 11:56N 37°57' E 023°36'0 0.0
2018-Jul-10 11:29N 37°57' E 023°36'0 0.0
2018-Jul-10 10:59N 37°57' E 023°36'0 0.0
2018-Jul-10 10:29N 37°57' E 023°36'0 0.0
2018-Jul-10 09:59N 37°57' E 023°36'0 0.0
2018-Jul-10 09:29N 37°57' E 023°36'0 0.0
2018-Jul-10 08:59N 37°57' E 023°36'0 0.0
2018-Jul-10 08:29N 37°57' E 023°36'0 0.0
2018-Jul-10 07:59N 37°57' E 023°36'0 0.0
2018-Jul-10 07:26N 37°57' E 023°36'0 0.0
2018-Jul-10 06:59N 37°57' E 023°36'0 0.0
2018-Jul-10 06:26N 37°57' E 023°36'0 0.0
2018-Jul-10 05:59N 37°57' E 023°36'0 0.0
2018-Jul-10 05:29N 37°57' E 023°36'0 0.0
2018-Jul-10 04:56N 37°57' E 023°36'0 0.0
2018-Jul-10 04:29N 37°57' E 023°36'0 0.0
2018-Jul-10 03:59N 37°57' E 023°36'0 0.0
2018-Jul-10 03:29N 37°57' E 023°36'0 0.0
2018-Jul-10 02:59N 37°57' E 023°36'0 0.0
2018-Jul-10 02:29N 37°57' E 023°36'0 0.0
2018-Jul-10 01:59N 37°57' E 023°36'0 0.0
2018-Jul-10 01:29N 37°57' E 023°36'0 0.0
2018-Jul-10 00:59N 37°57' E 023°36'0 0.0
2018-Jul-10 00:29N 37°57' E 023°36'0 0.0
2018-Jul-09 23:59N 37°57' E 023°36'0 0.0
2018-Jul-09 23:26N 37°57' E 023°36'0 0.0
2018-Jul-09 22:59N 37°57' E 023°36'0 0.0
2018-Jul-09 22:29N 37°57' E 023°36'0 0.0
2018-Jul-09 21:59N 37°57' E 023°36'0 0.0
2018-Jul-09 21:29N 37°57' E 023°36'0 0.0
2018-Jul-09 20:59N 37°57' E 023°36'0 0.0
2018-Jul-09 20:29N 37°57' E 023°36'0 0.0
2018-Jul-09 19:59N 37°57' E 023°36'0 0.0
2018-Jul-09 19:29N 37°57' E 023°36'0 0.0
2018-Jul-09 18:59N 37°57' E 023°36'0 0.0
2018-Jul-09 18:29N 37°57' E 023°36'0 0.0
2018-Jul-09 17:59N 37°57' E 023°36'0 0.0
2018-Jul-09 17:29N 37°57' E 023°36'0 0.0
2018-Jul-09 16:59N 37°57' E 023°36'0 0.0
2018-Jul-09 16:29N 37°57' E 023°36'0 0.0
2018-Jul-09 15:59N 37°57' E 023°36'0 0.0
2018-Jul-09 15:29N 37°57' E 023°36'0 0.0
2018-Jul-09 14:59N 37°57' E 023°36'0 0.0
2018-Jul-09 14:28N 37°57' E 023°36'0 0.0
2018-Jul-09 13:59N 37°57' E 023°36'  
Track history (hours):
 
Tides and Currents Weather Stations Pressure Air Temp Water Temp Dewpoint Dewpoint Depression Visibility Wind Speed Wind Dir Waves Ship Positions

Mykonos

Last reported at 2018-Jul-19 13:39 UTC. Time now 2018-Jul-20 10:49 UTC.
Position N 39°16' W 009°51'.

Length 91 m; draft 4.8 m.

Type: Tanker. MMSI: 236502000.

Date/timePositionNaut miles runAvg speedWind from/ knotsBaromVisibWave heightAir tempDewpointWater temp
2018-Jul-19 13:39N 39°16' W 009°51'210.7
2018-Jul-19 13:30N 39°15' W 009°51'610.6
2018-Jul-19 12:59N 39°09' W 009°51'510.7
2018-Jul-19 12:30N 39°04' W 009°51'611.0
2018-Jul-19 12:00N 38°58' W 009°51'510.8
2018-Jul-19 11:30N 38°53' W 009°51'610.5
2018-Jul-19 10:58N 38°47' W 009°51'510.6
2018-Jul-19 10:30N 38°43' W 009°51'511.0
2018-Jul-19 10:00N 38°37' W 009°49'611.2
2018-Jul-19 09:30N 38°32' W 009°47'710.9
2018-Jul-19 08:51N 38°25' W 009°45'710.9
2018-Jul-19 08:15N 38°19' W 009°43'611.0
2018-Jul-19 07:43N 38°13' W 009°42'211.1
2018-Jul-19 07:30N 38°11' W 009°41'611.0
2018-Jul-19 07:00N 38°05' W 009°40'610.9
2018-Jul-19 06:30N 37°60' W 009°38'610.9
2018-Jul-19 05:57N 37°54' W 009°37'510.7
2018-Jul-19 05:30N 37°49' W 009°36'7410.0
2018-Jul-18 22:04N 36°41' W 008°58'111.1
2018-Jul-18 21:56N 36°41' W 008°57'710.8
2018-Jul-18 21:17N 36°39' W 008°48'16510.6
2018-Jul-18 05:47N 35°60' W 005°29'310.3
2018-Jul-18 05:30N 36°01' W 005°26'6 9.9
2018-Jul-18 04:51N 36°06' W 005°23'2 5.2
2018-Jul-18 04:28N 36°08' W 005°22'0 0.1
2018-Jul-18 03:54N 36°08' W 005°22'0 0.1
2018-Jul-18 03:30N 36°09' W 005°22'0 0.1
2018-Jul-18 02:53N 36°08' W 005°22'0 0.1
2018-Jul-18 02:29N 36°08' W 005°22'0 0.1
2018-Jul-18 01:57N 36°08' W 005°22'0 0.0
2018-Jul-18 01:29N 36°08' W 005°22'0 0.1
2018-Jul-18 01:00N 36°08' W 005°22'0 0.8
2018-Jul-18 00:30N 36°08' W 005°22'3 6.4
2018-Jul-18 00:00N 36°05' W 005°20'5 9.0
2018-Jul-17 23:30N 36°06' W 005°15'21611.1
2018-Jul-17 03:55N 36°27' W 000°48'512.0
2018-Jul-17 03:30N 36°29' W 000°42'1711.6
2018-Jul-17 02:00N 36°32' W 000°21'1011.4
2018-Jul-17 01:09N 36°35' W 000°09'311.1
2018-Jul-17 00:54N 36°36' W 000°06'410.7
2018-Jul-17 00:30N 36°37' W 000°01'1010.1
2018-Jul-16 23:30N 36°40' E 000°12'5 9.7
2018-Jul-16 23:00N 36°41' E 000°18'5 9.7
2018-Jul-16 22:30N 36°41' E 000°24'9 9.9
2018-Jul-16 21:36N 36°43' E 000°34'1 9.6
2018-Jul-16 21:30N 36°43' E 000°35'238 9.6
2018-Jul-15 20:51N 37°29' E 005°28'1413.1
2018-Jul-15 19:49N 37°30' E 005°45'1112.9
2018-Jul-15 18:58N 37°32' E 005°59'35911.2
2018-Jul-14 10:57N 36°22' E 013°19'510.9
2018-Jul-14 10:30N 36°22' E 013°25'611.2
2018-Jul-14 10:00N 36°22' E 013°32'611.3
2018-Jul-14 09:30N 36°21' E 013°39'611.7
2018-Jul-14 09:00N 36°21' E 013°46'612.0
2018-Jul-14 08:30N 36°21' E 013°54'612.2
2018-Jul-14 07:59N 36°20' E 014°01'612.4
2018-Jul-14 07:29N 36°20' E 014°09'612.4
2018-Jul-14 07:00N 36°20' E 014°17'612.5
2018-Jul-14 06:30N 36°20' E 014°24'612.3
2018-Jul-14 06:00N 36°19' E 014°32'612.1
2018-Jul-14 05:30N 36°19' E 014°39'612.0
2018-Jul-14 05:00N 36°18' E 014°47'611.8
2018-Jul-14 04:30N 36°18' E 014°54'43010.0
2018-Jul-12 09:44N 37°37' E 023°43'412.0
2018-Jul-12 09:26N 37°41' E 023°42'512.3
2018-Jul-12 09:00N 37°45' E 023°39'612.2
2018-Jul-12 08:30N 37°51' E 023°35'4 8.7
2018-Jul-12 08:00N 37°55' E 023°33'0 0.2
2018-Jul-12 07:30N 37°55' E 023°33'0 0.0
2018-Jul-12 07:00N 37°55' E 023°33'0 0.0
2018-Jul-12 06:30N 37°55' E 023°33'0 0.0
2018-Jul-12 06:00N 37°55' E 023°33'0 0.0
2018-Jul-12 05:30N 37°55' E 023°33'0 0.1
2018-Jul-12 05:00N 37°55' E 023°33'0 0.1
2018-Jul-12 04:24N 37°55' E 023°33'0 0.0
2018-Jul-12 04:00N 37°55' E 023°33'0 0.0
2018-Jul-12 03:30N 37°55' E 023°33'0 0.1
2018-Jul-12 03:00N 37°55' E 023°33'0 0.1
2018-Jul-12 02:30N 37°55' E 023°33'0 0.0
2018-Jul-12 02:00N 37°55' E 023°33'0 0.0
2018-Jul-12 01:30N 37°55' E 023°33'0 0.0
2018-Jul-12 01:00N 37°55' E 023°33'0 0.0
2018-Jul-12 00:30N 37°55' E 023°33'0 0.0
2018-Jul-12 00:00N 37°55' E 023°33'0 0.0
2018-Jul-11 23:27N 37°55' E 023°33'0 0.0
2018-Jul-11 23:00N 37°55' E 023°33'0 0.1
2018-Jul-11 22:30N 37°55' E 023°33'0 0.0
2018-Jul-11 22:00N 37°55' E 023°33'0 0.0
2018-Jul-11 21:30N 37°55' E 023°33'0 0.0
2018-Jul-11 21:00N 37°55' E 023°33'0 0.0
2018-Jul-11 20:30N 37°55' E 023°33'0 0.1
2018-Jul-11 19:57N 37°55' E 023°33'0 0.1
2018-Jul-11 19:30N 37°55' E 023°33'0 0.1
2018-Jul-11 18:57N 37°55' E 023°33'0 0.1
2018-Jul-11 18:27N 37°55' E 023°33'0 0.1
2018-Jul-11 18:00N 37°55' E 023°33'0 0.0
2018-Jul-11 17:24N 37°55' E 023°33'0 0.0
2018-Jul-11 17:00N 37°55' E 023°33'0 0.0
2018-Jul-11 16:30N 37°55' E 023°33'0 0.0
2018-Jul-11 16:00N 37°55' E 023°33'0 0.0
2018-Jul-11 15:30N 37°55' E 023°33'0 0.0
2018-Jul-11 15:00N 37°55' E 023°33'0 0.0
2018-Jul-11 14:30N 37°55' E 023°33'0 0.0
2018-Jul-11 14:00N 37°55' E 023°33'0 0.0
2018-Jul-11 13:30N 37°55' E 023°33'0 0.0
2018-Jul-11 13:00N 37°55' E 023°33'0 0.1
2018-Jul-11 12:30N 37°55' E 023°33'0 0.0
2018-Jul-11 12:00N 37°55' E 023°33'0 0.0
2018-Jul-11 11:30N 37°55' E 023°33'0 0.0
2018-Jul-11 11:00N 37°55' E 023°33'0 0.0
2018-Jul-11 10:30N 37°55' E 023°33'0 0.0
2018-Jul-11 10:00N 37°55' E 023°33'0 0.0
2018-Jul-11 09:30N 37°55' E 023°33'0 0.1
2018-Jul-11 09:00N 37°55' E 023°33'0 0.1
2018-Jul-11 08:30N 37°55' E 023°33'1 1.6
2018-Jul-11 08:00N 37°55' E 023°34'3 5.6
2018-Jul-11 07:29N 37°57' E 023°36'0 0.1
2018-Jul-11 06:56N 37°57' E 023°36'0 0.0
2018-Jul-11 06:29N 37°57' E 023°36'0 0.0
2018-Jul-11 05:59N 37°57' E 023°36'0 0.0
2018-Jul-11 05:29N 37°57' E 023°36'0 0.0
2018-Jul-11 04:59N 37°57' E 023°36'0 0.0
2018-Jul-11 04:29N 37°57' E 023°36'0 0.0
2018-Jul-11 03:59N 37°57' E 023°36'0 0.0
2018-Jul-11 03:29N 37°57' E 023°36'0 0.0
2018-Jul-11 02:59N 37°57' E 023°36'0 0.0
2018-Jul-11 02:29N 37°57' E 023°36'0 0.0
2018-Jul-11 01:56N 37°57' E 023°36'0 0.0
2018-Jul-11 01:29N 37°57' E 023°36'0 0.0
2018-Jul-11 00:59N 37°57' E 023°36'0 0.0
2018-Jul-11 00:29N 37°57' E 023°36'0 0.0
2018-Jul-10 23:56N 37°57' E 023°36'0 0.0
2018-Jul-10 23:29N 37°57' E 023°36'0 0.0
2018-Jul-10 22:59N 37°57' E 023°36'0 0.0
2018-Jul-10 22:29N 37°57' E 023°36'0 0.0
2018-Jul-10 21:59N 37°57' E 023°36'0 0.0
2018-Jul-10 21:29N 37°57' E 023°36'0 0.0
2018-Jul-10 20:59N 37°57' E 023°36'0 0.0
2018-Jul-10 20:29N 37°57' E 023°36'0 0.0
2018-Jul-10 19:59N 37°57' E 023°36'0 0.0
2018-Jul-10 19:29N 37°57' E 023°36'0 0.0
2018-Jul-10 18:53N 37°57' E 023°36'0 0.0
2018-Jul-10 18:29N 37°57' E 023°36'0 0.0
2018-Jul-10 17:56N 37°57' E 023°36'0 0.0
2018-Jul-10 17:29N 37°57' E 023°36'0 0.0
2018-Jul-10 16:59N 37°57' E 023°36'0 0.0
2018-Jul-10 16:29N 37°57' E 023°36'0 0.0
2018-Jul-10 15:53N 37°57' E 023°36'0 0.0
2018-Jul-10 15:29N 37°57' E 023°36'0 0.0
2018-Jul-10 14:59N 37°57' E 023°36'0 0.0
2018-Jul-10 14:29N 37°57' E 023°36'0 0.0
2018-Jul-10 13:59N 37°57' E 023°36'0 0.0
2018-Jul-10 13:26N 37°57' E 023°36'0 0.0
2018-Jul-10 12:59N 37°57' E 023°36'0 0.0
2018-Jul-10 12:29N 37°57' E 023°36'0 0.0
2018-Jul-10 11:56N 37°57' E 023°36'0 0.0
2018-Jul-10 11:29N 37°57' E 023°36'0 0.0
2018-Jul-10 10:59N 37°57' E 023°36'0 0.0
2018-Jul-10 10:29N 37°57' E 023°36'0 0.0
2018-Jul-10 09:59N 37°57' E 023°36'0 0.0
2018-Jul-10 09:29N 37°57' E 023°36'0 0.0
2018-Jul-10 08:59N 37°57' E 023°36'0 0.0
2018-Jul-10 08:29N 37°57' E 023°36'0 0.0
2018-Jul-10 07:59N 37°57' E 023°36'0 0.0
2018-Jul-10 07:26N 37°57' E 023°36'0 0.0
2018-Jul-10 06:59N 37°57' E 023°36'0 0.0
2018-Jul-10 06:26N 37°57' E 023°36'0 0.0
2018-Jul-10 05:59N 37°57' E 023°36'0 0.0
2018-Jul-10 05:29N 37°57' E 023°36'0 0.0
2018-Jul-10 04:56N 37°57' E 023°36'0 0.0
2018-Jul-10 04:29N 37°57' E 023°36'0 0.0
2018-Jul-10 03:59N 37°57' E 023°36'0 0.0
2018-Jul-10 03:29N 37°57' E 023°36'0 0.0
2018-Jul-10 02:59N 37°57' E 023°36'0 0.0
2018-Jul-10 02:29N 37°57' E 023°36'0 0.0
2018-Jul-10 01:59N 37°57' E 023°36'0 0.0
2018-Jul-10 01:29N 37°57' E 023°36'0 0.0
2018-Jul-10 00:59N 37°57' E 023°36'0 0.0
2018-Jul-10 00:29N 37°57' E 023°36'0 0.0
2018-Jul-09 23:59N 37°57' E 023°36'0 0.0
2018-Jul-09 23:26N 37°57' E 023°36'0 0.0
2018-Jul-09 22:59N 37°57' E 023°36'0 0.0
2018-Jul-09 22:29N 37°57' E 023°36'0 0.0
2018-Jul-09 21:59N 37°57' E 023°36'0 0.0
2018-Jul-09 21:29N 37°57' E 023°36'0 0.0
2018-Jul-09 20:59N 37°57' E 023°36'0 0.0
2018-Jul-09 20:29N 37°57' E 023°36'0 0.0
2018-Jul-09 19:59N 37°57' E 023°36'0 0.0
2018-Jul-09 19:29N 37°57' E 023°36'0 0.0
2018-Jul-09 18:59N 37°57' E 023°36'0 0.0
2018-Jul-09 18:29N 37°57' E 023°36'0 0.0
2018-Jul-09 17:59N 37°57' E 023°36'0 0.0
2018-Jul-09 17:29N 37°57' E 023°36'0 0.0
2018-Jul-09 16:59N 37°57' E 023°36'0 0.0
2018-Jul-09 16:29N 37°57' E 023°36'0 0.0
2018-Jul-09 15:59N 37°57' E 023°36'0 0.0
2018-Jul-09 15:29N 37°57' E 023°36'0 0.0
2018-Jul-09 14:59N 37°57' E 023°36'0 0.0
2018-Jul-09 14:28N 37°57' E 023°36'0 0.0
2018-Jul-09 13:59N 37°57' E 023°36'  

Dump ship's entire track history